Time;durP1;ratioP1;P1;durP2;ratioP2;P2;SDS_P1;SDS_P2;PMS_P1;PMS_P2;Temp;Humidity;BMP_temperature;BMP_pressure;BME280_temperature;BME280_humidity;BME280_pressure;Samples;Min_cycle;Max_cycle;Signal;HPM_P1;HPM_P2
2024/04/08 00:00:20;;;;;;;3.30;2.97;;;23.20;56.50;;;;;;5528259;26;20465;-73
2024/04/08 00:02:46;;;;;;;4.13;3.07;;;23.20;56.50;;;;;;5528779;25;20751;-71
2024/04/08 00:05:12;;;;;;;3.67;2.90;;;23.20;56.50;;;;;;5528129;25;20225;-71
2024/04/08 00:07:37;;;;;;;4.80;2.80;;;23.20;56.50;;;;;;5528196;26;20442;-72
2024/04/08 00:10:03;;;;;;;5.20;2.80;;;23.10;57.00;;;;;;5527836;26;20263;-70
2024/04/08 00:12:29;;;;;;;3.70;3.20;;;23.10;56.40;;;;;;5527674;26;20222;-72
2024/04/08 00:14:55;;;;;;;3.60;3.20;;;23.10;56.30;;;;;;5527653;26;20438;-72
2024/04/08 00:17:21;;;;;;;3.20;2.90;;;23.10;56.30;;;;;;5528190;25;20334;-71
2024/04/08 00:19:46;;;;;;;5.00;3.60;;;23.20;56.40;;;;;;5527910;25;20454;-72
2024/04/08 00:22:12;;;;;;;4.20;2.73;;;23.20;56.40;;;;;;5527383;26;20272;-72
2024/04/08 00:24:38;;;;;;;6.20;3.13;;;23.20;56.40;;;;;;5527318;26;20276;-72
2024/04/08 00:27:03;;;;;;;5.20;3.10;;;23.20;56.40;;;;;;5527555;26;20324;-71
2024/04/08 00:29:29;;;;;;;4.83;3.00;;;23.10;56.30;;;;;;5527436;25;20214;-71
2024/04/08 00:31:55;;;;;;;6.27;3.30;;;23.10;56.30;;;;;;5527538;26;20279;-71
2024/04/08 00:34:20;;;;;;;4.17;2.87;;;23.20;56.40;;;;;;5527635;26;20712;-71
2024/04/08 00:36:46;;;;;;;4.63;3.10;;;23.20;56.40;;;;;;5527836;26;20751;-72
2024/04/08 00:39:11;;;;;;;4.37;2.67;;;23.20;56.30;;;;;;5527643;26;20259;-72
2024/04/08 00:41:37;;;;;;;3.13;2.57;;;23.20;56.30;;;;;;5527237;26;20348;-72
2024/04/08 00:44:03;;;;;;;3.70;2.53;;;23.20;56.30;;;;;;5527368;26;20255;-70
2024/04/08 00:46:29;;;;;;;4.97;3.20;;;23.10;56.20;;;;;;5527339;25;20233;-72
2024/04/08 00:48:56;;;;;;;3.17;2.87;;;23.10;56.80;;;;;;5527256;25;20271;-71
2024/04/08 00:51:23;;;;;;;5.93;2.93;;;23.20;56.30;;;;;;5527306;25;20454;-72
2024/04/08 00:53:49;;;;;;;3.27;2.97;;;23.20;56.30;;;;;;5525630;26;20510;-72
2024/04/08 00:56:17;;;;;;;2.60;2.40;;;23.20;56.30;;;;;;5527491;25;20502;-72
2024/04/08 00:58:43;;;;;;;3.90;2.80;;;23.20;56.40;;;;;;5525999;26;20898;-72
2024/04/08 01:01:10;;;;;;;5.10;2.70;;;23.10;56.30;;;;;;5527542;26;20474;-72
2024/04/08 01:03:36;;;;;;;5.47;2.80;;;23.10;56.20;;;;;;5527135;26;20264;-73
2024/04/08 01:06:02;;;;;;;4.30;3.07;;;23.10;56.20;;;;;;5525524;26;20442;-71
2024/04/08 01:08:28;;;;;;;3.70;3.07;;;23.10;56.20;;;;;;5527246;25;20260;-72
2024/04/08 01:10:55;;;;;;;4.63;3.20;;;23.10;56.20;;;;;;5527923;26;20457;-71
2024/04/08 01:13:20;;;;;;;3.40;2.80;;;23.10;56.20;;;;;;5527262;26;20268;-72
2024/04/08 01:15:46;;;;;;;4.00;2.63;;;23.10;56.20;;;;;;5527016;26;20506;-72
2024/04/08 01:18:12;;;;;;;4.27;3.07;;;23.10;56.20;;;;;;5527099;26;20617;-72
2024/04/08 01:20:37;;;;;;;3.83;3.00;;;23.10;56.20;;;;;;5526964;26;20324;-71
2024/04/08 01:23:05;;;;;;;4.47;2.90;;;23.10;56.20;;;;;;5526544;26;20372;-72
2024/04/08 01:25:30;;;;;;;3.30;3.00;;;23.10;56.20;;;;;;5526951;25;20221;-72
2024/04/08 01:27:56;;;;;;;4.90;3.53;;;23.10;56.20;;;;;;5526972;26;20489;-72
2024/04/08 01:30:22;;;;;;;5.13;3.17;;;23.10;56.20;;;;;;5526737;25;20751;-73
2024/04/08 01:32:51;;;;;;;7.17;3.50;;;23.10;56.20;;;;;;5525483;26;20581;-72
2024/04/08 01:35:16;;;;;;;6.60;2.93;;;23.10;56.20;;;;;;5526717;26;20632;-72
2024/04/08 01:37:42;;;;;;;4.57;3.30;;;23.10;56.20;;;;;;5526650;26;20449;-72
2024/04/08 01:40:08;;;;;;;3.50;2.63;;;23.10;56.20;;;;;;5526527;26;20253;-71
2024/04/08 01:42:33;;;;;;;5.50;3.00;;;23.00;56.10;;;;;;5526369;25;20271;-72
2024/04/08 01:44:59;;;;;;;4.10;2.83;;;23.10;56.20;;;;;;5526645;26;20545;-72
2024/04/08 01:47:25;;;;;;;3.73;3.30;;;23.10;56.20;;;;;;5526214;26;20257;-73
2024/04/08 01:49:50;;;;;;;4.30;2.83;;;23.00;56.10;;;;;;5526804;26;20217;-72
2024/04/08 01:52:16;;;;;;;5.27;3.00;;;23.00;56.10;;;;;;5526212;26;20241;-72
2024/04/08 01:54:41;;;;;;;3.87;3.40;;;23.00;56.10;;;;;;5526891;26;20747;-72
2024/04/08 01:57:07;;;;;;;4.23;3.17;;;23.00;56.10;;;;;;5526103;26;20664;-71
2024/04/08 01:59:33;;;;;;;6.43;3.00;;;23.00;56.10;;;;;;5526870;26;20333;-71
2024/04/08 02:01:58;;;;;;;5.93;3.57;;;23.00;56.00;;;;;;5526442;26;20229;-72
2024/04/08 02:04:24;;;;;;;4.20;3.20;;;23.00;56.10;;;;;;5527786;26;20332;-72
2024/04/08 02:06:49;;;;;;;5.23;3.03;;;23.00;56.10;;;;;;5526661;26;20754;-72
2024/04/08 02:09:15;;;;;;;3.50;2.90;;;23.00;56.00;;;;;;5527640;26;20256;-72
2024/04/08 02:11:41;;;;;;;5.37;2.93;;;23.00;56.00;;;;;;5526615;26;20248;-72
2024/04/08 02:14:06;;;;;;;6.50;2.97;;;23.00;56.00;;;;;;5526782;26;20446;-72
2024/04/08 02:16:32;;;;;;;3.93;2.70;;;23.00;56.00;;;;;;5526634;26;20271;-72
2024/04/08 02:18:58;;;;;;;3.70;3.07;;;23.00;56.00;;;;;;5526838;26;20229;-72
2024/04/08 02:21:23;;;;;;;4.17;3.10;;;23.00;56.00;;;;;;5526344;26;20458;-72
2024/04/08 02:23:49;;;;;;;3.90;2.93;;;23.00;56.00;;;;;;5494318;26;20225;-72
2024/04/08 02:26:14;;;;;;;3.87;3.00;;;23.00;56.50;;;;;;5527085;26;20328;-72
2024/04/08 02:28:40;;;;;;;5.77;3.50;;;23.00;56.00;;;;;;5526669;26;20213;-72
2024/04/08 02:31:06;;;;;;;4.93;3.40;;;23.00;56.00;;;;;;5526298;26;20282;-72
2024/04/08 02:33:31;;;;;;;5.63;3.03;;;23.00;56.00;;;;;;5526523;26;20213;-73
2024/04/08 02:36:04;;;;;;;5.00;3.10;;;23.00;56.00;;;;;;5526223;26;20306;-72
2024/04/08 02:38:31;;;;;;;3.40;3.00;;;23.00;55.90;;;;;;5524357;26;20782;-72
2024/04/08 02:40:57;;;;;;;7.67;3.50;;;23.00;56.50;;;;;;5526198;25;21019;-72
2024/04/08 02:43:23;;;;;;;3.00;2.70;;;22.90;55.90;;;;;;5527527;26;20486;-71
2024/04/08 02:45:49;;;;;;;5.60;3.37;;;22.90;55.90;;;;;;5530342;26;20221;-73
2024/04/08 02:48:15;;;;;;;4.80;2.87;;;22.90;55.90;;;;;;5530078;25;20454;-72
2024/04/08 02:50:43;;;;;;;5.63;3.53;;;22.90;55.90;;;;;;5529787;26;20583;-72
2024/04/08 02:53:10;;;;;;;3.90;2.70;;;22.90;55.80;;;;;;5529422;26;20491;-73
2024/04/08 02:55:35;;;;;;;4.47;3.23;;;22.90;55.80;;;;;;5529258;26;20497;-72
2024/04/08 02:58:01;;;;;;;4.33;3.00;;;22.90;55.80;;;;;;5527314;26;20972;-72
2024/04/08 03:00:26;;;;;;;4.20;3.10;;;22.90;55.80;;;;;;5529566;26;20229;-71
2024/04/08 03:02:52;;;;;;;4.70;2.80;;;22.90;55.80;;;;;;5529449;26;20260;-73
2024/04/08 03:05:17;;;;;;;5.17;3.37;;;22.90;55.80;;;;;;5529272;26;20696;-72
2024/04/08 03:07:43;;;;;;;4.70;3.17;;;22.90;55.80;;;;;;5529012;26;20830;-72
2024/04/08 03:10:09;;;;;;;6.33;3.47;;;22.90;55.80;;;;;;5529188;26;20217;-72
2024/04/08 03:12:34;;;;;;;3.80;3.03;;;22.90;55.80;;;;;;5529022;26;20217;-72
2024/04/08 03:15:00;;;;;;;4.63;2.87;;;22.90;55.70;;;;;;5528851;26;20264;-72
2024/04/08 03:17:26;;;;;;;7.13;2.90;;;22.90;55.70;;;;;;5528757;25;20217;-72
2024/04/08 03:19:55;;;;;;;6.10;3.00;;;22.90;55.80;;;;;;5528970;26;20217;-72
2024/04/08 03:22:21;;;;;;;3.50;2.80;;;22.90;55.70;;;;;;5528040;25;20834;-72
2024/04/08 03:24:47;;;;;;;3.70;2.90;;;22.90;55.70;;;;;;5528826;25;20559;-72
2024/04/08 03:27:12;;;;;;;5.33;3.30;;;22.90;55.70;;;;;;5529145;26;20450;-71
2024/04/08 03:29:38;;;;;;;3.67;3.10;;;22.90;55.70;;;;;;5528758;26;20297;-72
2024/04/08 03:32:04;;;;;;;6.03;3.20;;;22.90;55.70;;;;;;5528790;26;20415;-73
2024/04/08 03:34:31;;;;;;;3.90;2.97;;;22.90;55.70;;;;;;5528636;25;20217;-72
2024/04/08 03:37:00;;;;;;;6.20;3.33;;;22.90;55.70;;;;;;5528915;26;20258;-72
2024/04/08 03:39:25;;;;;;;4.40;2.90;;;22.90;55.60;;;;;;5528875;26;20494;-72
2024/04/08 03:41:53;;;;;;;5.77;3.10;;;22.90;55.60;;;;;;5528153;26;21011;-72
2024/04/08 03:44:19;;;;;;;5.90;3.00;;;22.90;55.60;;;;;;5528768;26;20724;-71
2024/04/08 03:46:44;;;;;;;4.30;3.60;;;22.90;55.60;;;;;;5528243;25;20445;-72
2024/04/08 03:49:10;;;;;;;6.07;2.90;;;22.90;55.60;;;;;;5528398;26;20458;-73
2024/04/08 03:51:36;;;;;;;4.93;3.43;;;22.90;55.60;;;;;;5528803;25;20229;-72
2024/04/08 03:54:02;;;;;;;3.83;3.20;;;22.90;55.60;;;;;;5528439;26;20225;-72
2024/04/08 03:56:28;;;;;;;3.17;2.97;;;22.90;55.60;;;;;;5527725;25;20712;-72
2024/04/08 03:58:53;;;;;;;5.73;4.10;;;22.90;55.60;;;;;;5528405;26;20495;-72
2024/04/08 04:01:20;;;;;;;4.30;2.80;;;22.90;55.70;;;;;;5528164;26;20279;-73
2024/04/08 04:03:46;;;;;;;3.43;3.13;;;22.90;55.70;;;;;;5528078;26;20395;-72
2024/04/08 04:06:12;;;;;;;5.27;3.60;;;22.90;55.70;;;;;;5528753;25;20491;-71
2024/04/08 04:08:38;;;;;;;2.83;2.53;;;22.90;55.70;;;;;;5527975;26;20494;-72
2024/04/08 04:11:05;;;;;;;5.63;3.50;;;22.90;55.70;;;;;;5527521;26;20229;-71
2024/04/08 04:13:30;;;;;;;3.07;2.77;;;22.90;55.70;;;;;;5526195;26;20268;-71
2024/04/08 04:15:56;;;;;;;3.33;2.60;;;22.90;55.70;;;;;;5527970;26;20445;-71
2024/04/08 04:18:21;;;;;;;4.20;3.13;;;22.90;55.80;;;;;;5527764;26;20278;-72
2024/04/08 04:20:47;;;;;;;7.20;3.60;;;22.90;55.70;;;;;;5528421;26;20225;-72
2024/04/08 04:23:16;;;;;;;4.20;3.00;;;22.90;55.70;;;;;;5527747;26;20225;-72
2024/04/08 04:25:42;;;;;;;5.90;4.03;;;22.90;55.60;;;;;;5527838;25;20229;-72
2024/04/08 04:28:08;;;;;;;3.03;2.60;;;22.90;55.50;;;;;;5527457;26;20563;-72
2024/04/08 04:30:34;;;;;;;4.93;3.10;;;22.90;55.50;;;;;;5525989;26;20263;-70
2024/04/08 04:33:03;;;;;;;4.57;3.00;;;22.90;55.50;;;;;;5527367;26;20438;-72
2024/04/08 04:35:29;;;;;;;4.70;2.87;;;22.90;55.40;;;;;;5527863;25;20268;-72
2024/04/08 04:37:55;;;;;;;4.53;3.53;;;22.90;55.40;;;;;;5527592;25;20563;-72
2024/04/08 04:40:20;;;;;;;4.03;2.83;;;22.90;55.40;;;;;;5527971;25;20996;-72
2024/04/08 04:42:46;;;;;;;3.57;3.00;;;22.90;55.40;;;;;;5527360;25;20221;-73
2024/04/08 04:45:12;;;;;;;3.50;2.43;;;22.90;55.40;;;;;;5527897;25;20217;-71
2024/04/08 04:47:38;;;;;;;5.03;2.93;;;22.90;55.40;;;;;;5527615;26;20494;-71
2024/04/08 04:50:04;;;;;;;4.80;3.07;;;22.90;55.40;;;;;;5527682;26;21171;-71
2024/04/08 04:52:30;;;;;;;6.93;2.23;;;23.00;55.50;;;;;;5527034;25;20548;-71
2024/04/08 04:54:56;;;;;;;6.80;3.10;;;23.00;55.50;;;;;;5528142;26;20450;-72
2024/04/08 04:57:22;;;;;;;2.87;2.67;;;22.90;55.50;;;;;;5527328;25;20221;-73
2024/04/08 04:59:48;;;;;;;5.80;2.90;;;22.90;55.50;;;;;;5527602;25;20510;-72
2024/04/08 05:02:13;;;;;;;4.47;3.23;;;22.90;56.00;;;;;;5527110;26;20233;-73
2024/04/08 05:04:39;;;;;;;4.83;2.90;;;23.00;55.60;;;;;;5527149;26;20708;-71
2024/04/08 05:07:04;;;;;;;3.10;2.67;;;22.90;55.50;;;;;;5524222;26;20213;-71
2024/04/08 05:09:30;;;;;;;3.93;2.63;;;23.00;55.60;;;;;;5526732;26;20271;-70
2024/04/08 05:11:56;;;;;;;3.73;2.80;;;22.90;55.60;;;;;;5525724;25;20244;-69
2024/04/08 05:14:22;;;;;;;4.40;3.00;;;23.00;55.70;;;;;;5526425;25;20221;-71
2024/04/08 05:16:50;;;;;;;3.33;3.03;;;23.00;55.70;;;;;;5526330;25;20708;-71
2024/04/08 05:19:16;;;;;;;4.27;2.60;;;23.00;55.70;;;;;;5526272;26;20225;-71
2024/04/08 05:21:43;;;;;;;3.73;2.30;;;23.00;55.80;;;;;;5525915;26;20516;-70
2024/04/08 05:24:09;;;;;;;3.10;2.80;;;23.00;55.80;;;;;;5526507;25;20732;-70
2024/04/08 05:26:35;;;;;;;2.90;2.60;;;23.00;56.40;;;;;;5525726;25;20438;-71
2024/04/08 05:29:01;;;;;;;4.70;2.60;;;23.00;55.80;;;;;;5526496;25;20850;-70
2024/04/08 05:31:26;;;;;;;4.80;2.60;;;23.00;55.80;;;;;;5525790;26;20303;-70
2024/04/08 05:33:52;;;;;;;3.20;2.40;;;23.00;55.80;;;;;;5526447;26;20213;-71
2024/04/08 05:36:17;;;;;;;3.80;2.47;;;23.00;55.80;;;;;;5525356;26;20267;-69
2024/04/08 05:38:43;;;;;;;3.63;3.30;;;23.00;55.80;;;;;;5525677;26;20616;-71
2024/04/08 05:41:08;;;;;;;4.60;2.93;;;23.00;55.80;;;;;;5525969;26;20853;-70
2024/04/08 05:43:34;;;;;;;3.57;2.70;;;23.00;55.80;;;;;;5526050;26;20874;-71
2024/04/08 05:46:00;;;;;;;3.40;2.53;;;23.00;55.80;;;;;;5525246;26;20222;-71
2024/04/08 05:48:25;;;;;;;2.97;2.13;;;23.10;55.90;;;;;;5525430;25;20213;-70
2024/04/08 05:50:51;;;;;;;3.90;2.90;;;23.00;55.80;;;;;;5523822;26;20640;-70
2024/04/08 05:53:16;;;;;;;3.60;2.37;;;23.10;55.90;;;;;;5525589;26;20321;-71
2024/04/08 05:55:42;;;;;;;5.37;3.07;;;23.10;55.90;;;;;;5523045;26;20267;-69
2024/04/08 05:58:10;;;;;;;3.47;2.57;;;23.10;55.90;;;;;;5525771;26;20267;-69
2024/04/08 06:00:36;;;;;;;3.20;2.80;;;23.10;55.90;;;;;;5525555;25;20708;-70
2024/04/08 06:03:03;;;;;;;2.10;1.87;;;23.10;56.00;;;;;;5524789;25;20996;-70
2024/04/08 06:05:29;;;;;;;2.50;2.30;;;23.10;56.00;;;;;;5524291;25;20612;-71
2024/04/08 06:07:55;;;;;;;2.70;2.27;;;23.10;56.00;;;;;;5525398;25;20446;-71
2024/04/08 06:10:22;;;;;;;2.87;2.67;;;23.10;56.00;;;;;;5525218;26;21569;-70
2024/04/08 06:12:48;;;;;;;2.67;2.47;;;23.10;56.00;;;;;;5523614;26;20311;-69
2024/04/08 06:15:15;;;;;;;2.60;2.40;;;23.10;56.00;;;;;;5525706;25;20446;-71
2024/04/08 06:17:40;;;;;;;2.97;2.67;;;23.10;56.00;;;;;;5525050;25;20267;-71
2024/04/08 06:20:06;;;;;;;2.90;2.40;;;23.10;56.00;;;;;;5525186;25;20457;-69
2024/04/08 06:22:35;;;;;;;3.20;2.40;;;23.10;56.00;;;;;;5525036;26;20233;-71
2024/04/08 06:25:01;;;;;;;2.67;2.23;;;23.10;56.00;;;;;;5525246;25;20704;-69
2024/04/08 06:27:27;;;;;;;3.00;2.50;;;23.10;56.00;;;;;;5525307;25;20533;-70
2024/04/08 06:29:52;;;;;;;3.80;2.20;;;23.10;56.00;;;;;;5524858;25;20995;-71
2024/04/08 06:32:18;;;;;;;2.83;2.37;;;23.10;56.00;;;;;;5524958;26;20517;-71
2024/04/08 06:34:43;;;;;;;2.30;2.03;;;23.10;56.00;;;;;;5524855;26;20213;-68
2024/04/08 06:37:09;;;;;;;3.57;2.90;;;23.10;56.00;;;;;;5524677;26;20221;-70
2024/04/08 06:39:35;;;;;;;4.87;2.37;;;23.10;56.00;;;;;;5524214;26;20213;-70
2024/04/08 06:42:00;;;;;;;3.20;2.10;;;23.10;56.00;;;;;;5524776;26;20341;-71
2024/04/08 06:44:26;;;;;;;3.20;2.63;;;23.20;56.10;;;;;;5523091;26;20288;-70
2024/04/08 06:46:51;;;;;;;3.50;2.77;;;23.10;56.10;;;;;;5524892;26;20221;-70
2024/04/08 06:49:17;;;;;;;4.40;2.30;;;23.10;56.10;;;;;;5524792;26;20255;-69
2024/04/08 06:51:42;;;;;;;3.37;2.40;;;23.10;56.10;;;;;;5524420;26;20237;-70
2024/04/08 06:54:08;;;;;;;2.57;2.27;;;23.10;56.10;;;;;;5524845;26;20264;-69
2024/04/08 06:56:34;;;;;;;2.63;2.30;;;23.10;56.10;;;;;;5524460;26;20800;-70
2024/04/08 06:58:59;;;;;;;3.40;3.07;;;23.10;56.10;;;;;;5524514;26;20327;-70
2024/04/08 07:01:25;;;;;;;2.70;2.20;;;23.20;56.20;;;;;;5524387;26;20225;-70
2024/04/08 07:03:50;;;;;;;2.10;1.90;;;23.20;56.20;;;;;;5524190;26;20230;-71
2024/04/08 07:06:17;;;;;;;2.57;2.27;;;23.20;56.20;;;;;;5524549;26;20217;-70
2024/04/08 07:08:43;;;;;;;2.53;1.90;;;23.20;56.20;;;;;;5524939;25;20260;-70
2024/04/08 07:11:08;;;;;;;2.53;1.90;;;23.20;56.20;;;;;;5524516;26;20548;-70
2024/04/08 07:13:36;;;;;;;2.10;1.90;;;23.20;56.20;;;;;;5524345;26;20213;-70
2024/04/08 07:16:03;;;;;;;2.43;1.83;;;23.20;56.20;;;;;;5524375;25;20214;-71
2024/04/08 07:18:29;;;;;;;2.60;1.93;;;23.20;56.20;;;;;;5524566;25;20438;-70
2024/04/08 07:20:55;;;;;;;2.20;2.00;;;23.20;56.20;;;;;;5524386;26;20505;-71
2024/04/08 07:23:21;;;;;;;2.63;2.40;;;23.20;56.20;;;;;;5524451;25;20268;-69
2024/04/08 07:25:46;;;;;;;3.80;2.20;;;23.20;56.20;;;;;;5524611;26;20976;-70
2024/04/08 07:28:12;;;;;;;3.53;2.20;;;23.20;56.20;;;;;;5524628;25;20267;-69
2024/04/08 07:30:38;;;;;;;2.37;2.07;;;23.20;56.20;;;;;;5526159;26;20225;-71
2024/04/08 07:33:04;;;;;;;2.20;2.00;;;23.20;56.10;;;;;;5528442;26;20222;-69
2024/04/08 07:35:31;;;;;;;2.63;2.43;;;23.20;56.10;;;;;;5527450;25;20442;-70
2024/04/08 07:37:56;;;;;;;2.60;2.33;;;23.20;56.10;;;;;;5528132;25;20442;-70
2024/04/08 07:40:22;;;;;;;2.20;2.00;;;23.20;56.10;;;;;;5528074;25;20988;-71
2024/04/08 07:42:48;;;;;;;3.33;2.30;;;23.20;56.10;;;;;;5528760;26;20337;-71
2024/04/08 07:45:14;;;;;;;2.23;2.03;;;23.20;56.10;;;;;;5528030;26;20214;-71
2024/04/08 07:47:40;;;;;;;3.93;2.00;;;23.20;56.10;;;;;;5528200;26;20217;-71
2024/04/08 07:50:07;;;;;;;2.80;2.10;;;23.30;56.20;;;;;;5528135;25;20904;-70
2024/04/08 07:52:37;;;;;;;2.20;2.00;;;23.20;56.10;;;;;;5528575;25;20726;-69
2024/04/08 07:55:03;;;;;;;3.10;1.90;;;23.20;56.10;;;;;;5527843;25;20535;-71
2024/04/08 07:57:29;;;;;;;2.23;1.97;;;23.20;56.10;;;;;;5527940;25;20435;-70
2024/04/08 07:59:54;;;;;;;2.30;2.10;;;23.20;56.10;;;;;;5528692;25;20505;-70
2024/04/08 08:02:20;;;;;;;2.63;2.43;;;23.30;56.20;;;;;;5528038;26;20272;-71
2024/04/08 08:04:46;;;;;;;3.07;2.23;;;23.20;56.10;;;;;;5528374;25;20221;-71
2024/04/08 08:07:11;;;;;;;2.73;2.47;;;23.30;56.20;;;;;;5528401;26;20319;-70
2024/04/08 08:09:37;;;;;;;2.83;2.47;;;23.30;56.20;;;;;;5528029;26;20324;-70
2024/04/08 08:12:03;;;;;;;2.40;2.13;;;23.30;56.20;;;;;;5527918;26;20225;-70
2024/04/08 08:14:28;;;;;;;1.80;1.70;;;23.30;56.20;;;;;;5527992;25;20329;-71
2024/04/08 08:16:54;;;;;;;1.90;1.80;;;23.30;56.20;;;;;;5527335;26;20515;-70
2024/04/08 08:19:19;;;;;;;2.10;1.90;;;23.30;56.20;;;;;;5527909;26;20234;-71
2024/04/08 08:21:45;;;;;;;2.47;2.27;;;23.30;56.20;;;;;;5527072;26;20272;-70
2024/04/08 08:24:10;;;;;;;2.40;2.20;;;23.30;56.20;;;;;;5527615;26;20621;-71
2024/04/08 08:26:36;;;;;;;2.23;2.03;;;23.30;56.20;;;;;;5527924;26;20213;-70
2024/04/08 08:29:02;;;;;;;3.37;2.20;;;23.30;56.20;;;;;;5527384;26;20328;-69
2024/04/08 08:31:27;;;;;;;2.00;1.80;;;23.30;56.20;;;;;;5526878;26;20305;-70
2024/04/08 08:33:53;;;;;;;2.60;2.03;;;23.30;56.20;;;;;;5528149;26;20217;-70
2024/04/08 08:36:18;;;;;;;3.27;2.00;;;23.30;56.20;;;;;;5524993;26;20221;-71
2024/04/08 08:38:44;;;;;;;2.47;1.93;;;23.30;56.20;;;;;;5528149;26;20263;-71
2024/04/08 08:41:11;;;;;;;2.60;1.80;;;23.30;56.20;;;;;;5527216;26;20590;-71
2024/04/08 08:43:37;;;;;;;2.37;2.10;;;23.30;56.20;;;;;;5527492;25;20267;-69
2024/04/08 08:46:04;;;;;;;1.90;1.70;;;23.30;56.20;;;;;;5526796;25;20795;-70
2024/04/08 08:48:29;;;;;;;2.20;2.00;;;23.30;56.20;;;;;;5527195;25;20701;-70
2024/04/08 08:50:56;;;;;;;2.20;1.90;;;23.30;56.20;;;;;;5527292;25;20454;-72
2024/04/08 08:53:22;;;;;;;2.43;2.23;;;23.30;56.20;;;;;;5527356;25;20588;-71
2024/04/08 08:55:50;;;;;;;2.83;2.00;;;23.30;56.20;;;;;;5526805;25;20501;-70
2024/04/08 08:58:16;;;;;;;2.87;1.90;;;23.30;56.20;;;;;;5527358;25;20434;-71
2024/04/08 09:00:42;;;;;;;2.23;2.03;;;23.30;56.20;;;;;;5527337;25;20533;-70
2024/04/08 09:03:13;;;;;;;2.00;1.80;;;23.30;56.20;;;;;;5527217;26;20567;-71
2024/04/08 09:05:38;;;;;;;2.87;2.10;;;23.40;56.30;;;;;;5527205;25;20562;-69
2024/04/08 09:08:05;;;;;;;2.40;1.87;;;23.40;56.30;;;;;;5527352;25;20435;-70
2024/04/08 09:10:44;;;;;;;2.60;2.17;;;23.40;56.30;;;;;;5526920;25;20288;-69
2024/04/08 09:13:23;;;;;;;2.30;1.73;;;23.40;56.30;;;;;;5526897;25;20446;-71
2024/04/08 09:15:50;;;;;;;2.20;2.00;;;23.40;56.30;;;;;;5527033;25;20438;-70
2024/04/08 09:18:19;;;;;;;2.00;1.70;;;23.40;56.30;;;;;;5526550;25;20518;-71
2024/04/08 09:20:45;;;;;;;2.73;2.27;;;23.40;56.30;;;;;;5527102;25;20457;-71
2024/04/08 09:23:11;;;;;;;3.30;2.50;;;23.40;56.30;;;;;;5526952;26;20930;-71
2024/04/08 09:25:37;;;;;;;2.60;2.03;;;23.40;56.30;;;;;;5527486;25;20229;-70
2024/04/08 09:28:03;;;;;;;2.63;2.07;;;23.40;56.30;;;;;;5526303;25;20446;-69
2024/04/08 09:30:29;;;;;;;2.27;1.80;;;23.40;56.30;;;;;;5527355;25;20514;-70
2024/04/08 09:32:55;;;;;;;2.10;1.80;;;23.40;56.30;;;;;;5526886;26;20555;-71
2024/04/08 09:35:21;;;;;;;2.20;1.90;;;23.40;56.30;;;;;;5527713;25;20268;-71
2024/04/08 09:37:47;;;;;;;3.20;1.90;;;23.40;56.30;;;;;;5526356;25;20862;-71
2024/04/08 09:40:14;;;;;;;2.53;2.30;;;23.40;56.30;;;;;;5526453;25;20565;-69
2024/04/08 09:42:42;;;;;;;2.40;2.20;;;23.40;56.30;;;;;;5526828;25;20529;-71
2024/04/08 09:45:09;;;;;;;2.10;1.77;;;23.40;56.30;;;;;;5526998;25;20980;-71
2024/04/08 09:47:37;;;;;;;3.30;2.30;;;23.40;56.30;;;;;;5526462;25;20449;-69
2024/04/08 09:50:04;;;;;;;3.00;1.80;;;23.40;56.30;;;;;;5526487;25;20956;-70
2024/04/08 09:52:30;;;;;;;3.20;2.40;;;23.40;56.30;;;;;;5524887;25;20438;-69
2024/04/08 09:54:56;;;;;;;4.07;2.10;;;23.40;56.30;;;;;;5526547;25;20875;-71
2024/04/08 09:57:27;;;;;;;3.53;2.20;;;23.40;56.30;;;;;;5524057;26;20225;-70
2024/04/08 09:59:56;;;;;;;2.00;1.80;;;23.40;56.30;;;;;;5526259;25;20447;-69
2024/04/08 10:02:37;;;;;;;3.17;1.83;;;23.40;56.30;;;;;;5525590;25;20824;-70
2024/04/08 10:05:04;;;;;;;3.17;2.20;;;23.40;56.40;;;;;;5526312;25;20438;-69
2024/04/08 10:07:32;;;;;;;3.43;2.40;;;23.40;56.30;;;;;;5525470;25;20446;-69
2024/04/08 10:10:01;;;;;;;3.40;1.93;;;23.40;56.40;;;;;;5525867;25;20442;-70
2024/04/08 10:12:35;;;;;;;2.47;1.90;;;23.40;56.40;;;;;;5525208;25;20438;-70
2024/04/08 10:15:13;;;;;;;2.50;2.30;;;23.40;56.40;;;;;;5525850;25;20566;-70
2024/04/08 10:17:45;;;;;;;3.23;2.20;;;23.40;56.40;;;;;;5525610;25;20453;-70
2024/04/08 10:20:17;;;;;;;3.20;1.77;;;23.40;56.40;;;;;;5523334;26;20446;-70
2024/04/08 10:22:44;;;;;;;3.97;1.93;;;23.40;56.40;;;;;;5525605;25;20548;-70
2024/04/08 10:25:38;;;;;;;2.17;1.90;;;23.40;56.40;;;;;;5525294;25;20510;-71
2024/04/08 10:28:05;;;;;;;3.00;2.13;;;23.50;56.50;;;;;;5525351;25;20907;-70
2024/04/08 10:30:32;;;;;;;3.00;2.07;;;23.40;56.40;;;;;;5525245;25;20474;-70
2024/04/08 10:32:59;;;;;;;3.27;2.30;;;23.40;56.40;;;;;;5525277;25;20506;-70
2024/04/08 10:35:24;;;;;;;2.57;2.10;;;23.40;56.40;;;;;;5525166;25;20575;-70
2024/04/08 10:37:50;;;;;;;2.70;1.90;;;23.40;56.40;;;;;;5525235;26;20461;-70
2024/04/08 10:40:19;;;;;;;3.87;1.90;;;23.40;56.40;;;;;;5524657;26;20239;-71
2024/04/08 10:42:44;;;;;;;2.50;2.00;;;23.40;56.40;;;;;;5525436;25;20252;-71
2024/04/08 10:45:10;;;;;;;2.43;1.97;;;23.40;56.40;;;;;;5525298;26;20513;-71
2024/04/08 10:47:38;;;;;;;3.10;2.27;;;23.40;56.40;;;;;;5525743;26;20225;-70
2024/04/08 10:50:04;;;;;;;2.30;2.10;;;23.40;56.40;;;;;;5524785;25;20264;-70
2024/04/08 10:52:38;;;;;;;2.10;1.60;;;23.40;56.40;;;;;;5525363;25;20531;-68
2024/04/08 10:55:04;;;;;;;2.10;1.90;;;23.40;56.40;;;;;;5525049;25;20446;-68
2024/04/08 10:57:29;;;;;;;2.90;2.07;;;23.40;56.40;;;;;;5525385;25;20509;-69
2024/04/08 10:59:55;;;;;;;2.23;1.83;;;23.40;56.40;;;;;;5524897;26;20281;-70
2024/04/08 11:02:21;;;;;;;2.27;1.67;;;23.40;56.40;;;;;;5524829;26;20279;-69
2024/04/08 11:04:47;;;;;;;3.07;2.13;;;23.40;56.40;;;;;;5526015;26;20316;-70
2024/04/08 11:07:12;;;;;;;2.27;1.70;;;23.40;56.40;;;;;;5528339;25;20218;-70
2024/04/08 11:09:38;;;;;;;2.67;2.00;;;23.40;56.40;;;;;;5528078;26;20453;-70
2024/04/08 11:12:04;;;;;;;2.90;2.30;;;23.50;56.50;;;;;;5528164;25;20280;-69
2024/04/08 11:14:30;;;;;;;2.10;1.90;;;23.50;56.50;;;;;;5528477;26;20336;-70
2024/04/08 11:16:59;;;;;;;4.63;3.10;;;23.40;56.40;;;;;;5528014;26;20489;-70
2024/04/08 11:19:28;;;;;;;2.33;1.80;;;23.50;56.50;;;;;;5528148;25;20498;-69
2024/04/08 11:21:55;;;;;;;2.70;2.10;;;23.50;56.50;;;;;;5528153;25;20465;-69
2024/04/08 11:24:21;;;;;;;1.87;1.73;;;23.50;56.50;;;;;;5528524;25;20980;-67
2024/04/08 11:26:47;;;;;;;3.07;2.27;;;23.50;56.50;;;;;;5528329;25;20563;-70
2024/04/08 11:29:12;;;;;;;3.37;2.40;;;23.50;56.50;;;;;;5528468;25;20964;-69
2024/04/08 11:31:38;;;;;;;2.90;1.83;;;23.50;56.50;;;;;;5527197;26;20225;-71
2024/04/08 11:34:04;;;;;;;3.67;2.50;;;23.50;56.50;;;;;;5527436;26;20264;-70
2024/04/08 11:36:29;;;;;;;2.67;2.10;;;23.50;56.50;;;;;;5528452;26;20217;-69
2024/04/08 11:38:55;;;;;;;2.80;2.00;;;23.50;56.50;;;;;;5528318;26;20213;-71
2024/04/08 11:41:21;;;;;;;3.40;2.10;;;23.50;56.50;;;;;;5528298;25;20241;-69
2024/04/08 11:43:46;;;;;;;7.83;3.40;;;23.50;56.60;;;;;;5527976;26;20213;-70
2024/04/08 11:46:12;;;;;;;8.80;4.80;;;23.50;56.60;;;;;;5527965;26;20214;-70
2024/04/08 11:48:40;;;;;;;21.40;8.40;;;23.50;56.60;;;;;;5527861;26;20217;-70
2024/04/08 11:51:07;;;;;;;40.40;13.97;;;23.50;56.60;;;;;;5527837;25;20260;-70
2024/04/08 11:53:33;;;;;;;43.43;18.70;;;23.50;56.60;;;;;;5526030;26;20446;-70
2024/04/08 11:55:58;;;;;;;79.90;30.70;;;23.50;56.60;;;;;;5527840;26;20840;-70
2024/04/08 11:58:25;;;;;;;106.70;42.30;;;23.50;56.60;;;;;;5527951;26;21566;-70
2024/04/08 12:00:50;;;;;;;148.73;49.07;;;23.50;56.60;;;;;;5528095;25;20233;-68
2024/04/08 12:03:16;;;;;;;134.73;50.07;;;23.50;56.70;;;;;;5527245;26;20503;-68
2024/04/08 12:05:42;;;;;;;135.50;50.77;;;23.50;56.70;;;;;;5528730;26;20324;-68
2024/04/08 12:08:08;;;;;;;151.87;51.37;;;23.50;56.70;;;;;;5527880;25;20260;-70
2024/04/08 12:10:34;;;;;;;133.00;50.20;;;23.50;56.70;;;;;;5527998;26;20469;-70
2024/04/08 12:13:22;;;;;;;149.00;50.20;;;23.50;56.70;;;;;;5527736;26;20213;-69
2024/04/08 12:15:48;;;;;;;114.87;47.30;;;23.50;56.70;;;;;;5526982;25;20496;-68
2024/04/08 12:18:13;;;;;;;110.30;44.30;;;23.50;56.70;;;;;;5527355;25;20802;-67
2024/04/08 12:20:39;;;;;;;142.70;46.57;;;23.50;57.30;;;;;;5527545;25;20708;-70
2024/04/08 12:23:06;;;;;;;99.00;41.93;;;23.50;56.70;;;;;;5527275;26;20271;-71
2024/04/08 12:25:32;;;;;;;138.40;44.20;;;23.50;56.80;;;;;;5527596;26;20716;-69
2024/04/08 12:27:58;;;;;;;115.67;45.30;;;23.50;56.80;;;;;;5527179;25;20969;-69
2024/04/08 12:30:23;;;;;;;111.17;42.40;;;23.50;56.80;;;;;;5527702;25;20469;-70
2024/04/08 12:32:49;;;;;;;119.97;43.90;;;23.50;56.90;;;;;;5526809;26;20221;-70
2024/04/08 12:35:15;;;;;;;113.10;40.70;;;23.50;56.90;;;;;;5527546;26;20209;-70
2024/04/08 12:37:40;;;;;;;94.93;41.13;;;23.50;56.90;;;;;;5526917;25;20249;-70
2024/04/08 12:40:06;;;;;;;105.40;40.60;;;23.50;56.90;;;;;;5527132;26;20225;-69